sensor_id;sensor_type;location;lat;lon;timestamp;pressure;altitude;pressure_sealevel;temperature;humidity
11648;BME280;5880;52.342;9.662;2022-10-24T00:01:49;100184.91;;;19.79;58.52
11648;BME280;5880;52.342;9.662;2022-10-24T00:04:14;100188.50;;;19.80;58.61
11648;BME280;5880;52.342;9.662;2022-10-24T00:06:40;100203.16;;;19.80;58.70
11648;BME280;5880;52.342;9.662;2022-10-24T00:09:06;100199.28;;;19.81;58.63
11648;BME280;5880;52.342;9.662;2022-10-24T00:11:33;100190.97;;;19.81;58.47
11648;BME280;5880;52.342;9.662;2022-10-24T00:14:00;100199.28;;;19.81;58.43
11648;BME280;5880;52.342;9.662;2022-10-24T00:16:27;100191.78;;;19.82;58.20
11648;BME280;5880;52.342;9.662;2022-10-24T00:18:53;100188.50;;;19.80;58.35
11648;BME280;5880;52.342;9.662;2022-10-24T00:21:19;100185.72;;;19.80;58.52
11648;BME280;5880;52.342;9.662;2022-10-24T00:23:45;100189.00;;;19.82;58.44
11648;BME280;5880;52.342;9.662;2022-10-24T00:26:12;100180.69;;;19.82;58.18
11648;BME280;5880;52.342;9.662;2022-10-24T00:28:40;100172.38;;;19.82;58.28
11648;BME280;5880;52.342;9.662;2022-10-24T00:31:10;100178.72;;;19.82;58.51
11648;BME280;5880;52.342;9.662;2022-10-24T00:33:37;100188.19;;;19.81;58.59
11648;BME280;5880;52.342;9.662;2022-10-24T00:36:03;100191.78;;;19.82;58.61
11648;BME280;5880;52.342;9.662;2022-10-24T00:38:29;100192.94;;;19.81;58.65
11648;BME280;5880;52.342;9.662;2022-10-24T00:40:54;100193.44;;;19.83;58.67
11648;BME280;5880;52.342;9.662;2022-10-24T00:43:23;100191.16;;;19.85;58.34
11648;BME280;5880;52.342;9.662;2022-10-24T00:45:57;100194.47;;;19.87;58.03
11648;BME280;5880;52.342;9.662;2022-10-24T00:48:34;100180.59;;;19.87;58.06
11648;BME280;5880;52.342;9.662;2022-10-24T00:53:46;100174.22;;;19.87;58.09
11648;BME280;5880;52.342;9.662;2022-10-24T00:56:16;100170.31;;;19.88;58.18
11648;BME280;5880;52.342;9.662;2022-10-24T00:58:44;100162.31;;;19.86;58.17
11648;BME280;5880;52.342;9.662;2022-10-24T01:01:11;100170.66;;;19.86;58.10
11648;BME280;5880;52.342;9.662;2022-10-24T01:03:37;100161.56;;;19.80;57.83
11648;BME280;5880;52.342;9.662;2022-10-24T01:06:22;100167.88;;;19.86;57.86
11648;BME280;5880;52.342;9.662;2022-10-24T01:15:18;100170.81;;;19.76;57.95
11648;BME280;5880;52.342;9.662;2022-10-24T01:18:16;100182.81;;;19.71;58.04
11648;BME280;5880;52.342;9.662;2022-10-24T01:23:59;100186.19;;;19.68;58.22
11648;BME280;5880;52.342;9.662;2022-10-24T01:26:58;100187.31;;;19.67;58.18
11648;BME280;5880;52.342;9.662;2022-10-24T01:32:56;100169.34;;;19.65;57.94
11648;BME280;5880;52.342;9.662;2022-10-24T01:38:35;100165.94;;;19.68;57.91
11648;BME280;5880;52.342;9.662;2022-10-24T01:41:09;100166.25;;;19.66;57.90
11648;BME280;5880;52.342;9.662;2022-10-24T01:43:48;100150.53;;;19.61;57.71
11648;BME280;5880;52.342;9.662;2022-10-24T01:46:28;100145.22;;;19.65;57.84
11648;BME280;5880;52.342;9.662;2022-10-24T01:49:15;100147.69;;;19.67;57.91
11648;BME280;5880;52.342;9.662;2022-10-24T01:51:44;100144.38;;;19.65;57.93
11648;BME280;5880;52.342;9.662;2022-10-24T01:54:13;100144.38;;;19.65;58.02
11648;BME280;5880;52.342;9.662;2022-10-24T01:56:39;100149.94;;;19.65;57.72
11648;BME280;5880;52.342;9.662;2022-10-24T01:59:37;100146.31;;;19.64;57.77
11648;BME280;5880;52.342;9.662;2022-10-24T02:02:05;100140.28;;;19.62;57.76
11648;BME280;5880;52.342;9.662;2022-10-24T02:04:35;100142.22;;;19.61;57.84
11648;BME280;5880;52.342;9.662;2022-10-24T02:07:06;100133.59;;;19.63;57.93
11648;BME280;5880;52.342;9.662;2022-10-24T02:09:36;100137.50;;;19.62;57.74
11648;BME280;5880;52.342;9.662;2022-10-24T02:12:06;100132.78;;;19.63;57.78
11648;BME280;5880;52.342;9.662;2022-10-24T02:14:38;100139.44;;;19.61;57.80
11648;BME280;5880;52.342;9.662;2022-10-24T02:17:05;100133.38;;;19.59;58.01
11648;BME280;5880;52.342;9.662;2022-10-24T02:19:32;100129.78;;;19.59;57.75
11648;BME280;5880;52.342;9.662;2022-10-24T02:22:19;100115.94;;;19.59;57.81
11648;BME280;5880;52.342;9.662;2022-10-24T02:25:00;100107.94;;;19.57;58.08
11648;BME280;5880;52.342;9.662;2022-10-24T02:27:40;100092.41;;;19.56;57.88
11648;BME280;5880;52.342;9.662;2022-10-24T02:30:13;100094.38;;;19.56;58.01
11648;BME280;5880;52.342;9.662;2022-10-24T02:32:53;100113.47;;;19.57;57.78
11648;BME280;5880;52.342;9.662;2022-10-24T02:35:26;100121.28;;;19.55;57.94
11648;BME280;5880;52.342;9.662;2022-10-24T02:38:10;100112.09;;;19.55;57.76
11648;BME280;5880;52.342;9.662;2022-10-24T02:40:38;100119.94;;;19.53;57.76
11648;BME280;5880;52.342;9.662;2022-10-24T02:43:06;100113.53;;;19.52;57.60
11648;BME280;5880;52.342;9.662;2022-10-24T02:45:35;100106.06;;;19.53;57.80
11648;BME280;5880;52.342;9.662;2022-10-24T02:48:04;100105.22;;;19.52;57.59
11648;BME280;5880;52.342;9.662;2022-10-24T02:50:31;100110.28;;;19.50;57.64
11648;BME280;5880;52.342;9.662;2022-10-24T02:52:57;100114.69;;;19.51;57.76
11648;BME280;5880;52.342;9.662;2022-10-24T02:55:23;100105.56;;;19.51;57.71
11648;BME280;5880;52.342;9.662;2022-10-24T02:57:49;100095.56;;;19.50;57.83
11648;BME280;5880;52.342;9.662;2022-10-24T03:00:14;100097.53;;;19.49;57.56
11648;BME280;5880;52.342;9.662;2022-10-24T03:02:43;100092.00;;;19.49;57.72
11648;BME280;5880;52.342;9.662;2022-10-24T03:05:09;100106.13;;;19.48;57.62
11648;BME280;5880;52.342;9.662;2022-10-24T03:07:34;100106.47;;;19.46;57.62
11648;BME280;5880;52.342;9.662;2022-10-24T03:10:00;100097.63;;;19.44;57.60
11648;BME280;5880;52.342;9.662;2022-10-24T03:12:26;100096.81;;;19.44;57.86
11648;BME280;5880;52.342;9.662;2022-10-24T03:14:52;100086.84;;;19.43;57.84
11648;BME280;5880;52.342;9.662;2022-10-24T03:17:18;100094.34;;;19.42;57.91
11648;BME280;5880;52.342;9.662;2022-10-24T03:19:43;100087.97;;;19.42;57.99
11648;BME280;5880;52.342;9.662;2022-10-24T03:22:10;100086.84;;;19.43;57.82
11648;BME280;5880;52.342;9.662;2022-10-24T03:24:36;100088.78;;;19.42;57.95
11648;BME280;5880;52.342;9.662;2022-10-24T03:27:02;100080.47;;;19.42;57.92
11648;BME280;5880;52.342;9.662;2022-10-24T03:29:28;100086.84;;;19.43;57.98
11648;BME280;5880;52.342;9.662;2022-10-24T03:31:53;100080.19;;;19.44;58.04
11648;BME280;5880;52.342;9.662;2022-10-24T03:34:19;100071.88;;;19.44;57.80
11648;BME280;5880;52.342;9.662;2022-10-24T03:36:45;100069.91;;;19.44;57.72
11648;BME280;5880;52.342;9.662;2022-10-24T03:39:10;100070.75;;;19.45;57.94
11648;BME280;5880;52.342;9.662;2022-10-24T03:41:36;100087.06;;;19.46;57.73
11648;BME280;5880;52.342;9.662;2022-10-24T03:44:02;100071.56;;;19.45;57.73
11648;BME280;5880;52.342;9.662;2022-10-24T03:46:27;100082.63;;;19.45;57.89
11648;BME280;5880;52.342;9.662;2022-10-24T03:48:53;100080.19;;;19.44;57.70
11648;BME280;5880;52.342;9.662;2022-10-24T03:51:18;100073.00;;;19.43;57.74
11648;BME280;5880;52.342;9.662;2022-10-24T03:53:44;100076.66;;;19.38;57.84
11648;BME280;5880;52.342;9.662;2022-10-24T03:56:10;100074.94;;;19.42;57.73
11648;BME280;5880;52.342;9.662;2022-10-24T03:58:35;100082.72;;;19.40;57.98
11648;BME280;5880;52.342;9.662;2022-10-24T04:01:01;100081.09;;;19.39;57.76
11648;BME280;5880;52.342;9.662;2022-10-24T04:03:27;100073.91;;;19.38;57.94
11648;BME280;5880;52.342;9.662;2022-10-24T04:05:53;100086.13;;;19.37;57.86
11648;BME280;5880;52.342;9.662;2022-10-24T04:08:19;100069.78;;;19.35;57.81
11648;BME280;5880;52.342;9.662;2022-10-24T04:10:45;100078.91;;;19.36;57.89
11648;BME280;5880;52.342;9.662;2022-10-24T04:13:12;100080.06;;;19.35;57.96
11648;BME280;5880;52.342;9.662;2022-10-24T04:15:38;100070.94;;;19.34;58.15
11648;BME280;5880;52.342;9.662;2022-10-24T04:18:04;100066.81;;;19.32;58.11
11648;BME280;5880;52.342;9.662;2022-10-24T04:20:30;100070.41;;;19.32;58.20
11648;BME280;5880;52.342;9.662;2022-10-24T04:22:55;100077.91;;;19.32;58.11
11648;BME280;5880;52.342;9.662;2022-10-24T04:25:21;100077.06;;;19.31;58.06
11648;BME280;5880;52.342;9.662;2022-10-24T04:27:47;100075.44;;;19.30;58.21
11648;BME280;5880;52.342;9.662;2022-10-24T04:30:14;100070.41;;;19.32;58.07
11648;BME280;5880;52.342;9.662;2022-10-24T04:32:40;100064.06;;;19.32;58.26
11648;BME280;5880;52.342;9.662;2022-10-24T04:35:06;100060.16;;;19.33;58.40
11648;BME280;5880;52.342;9.662;2022-10-24T04:37:32;100060.44;;;19.31;58.08
11648;BME280;5880;52.342;9.662;2022-10-24T04:39:58;100060.44;;;19.31;58.27
11648;BME280;5880;52.342;9.662;2022-10-24T04:42:25;100056.56;;;19.32;58.32
11648;BME280;5880;52.342;9.662;2022-10-24T04:44:50;100063.22;;;19.31;58.20
11648;BME280;5880;52.342;9.662;2022-10-24T04:47:16;100067.94;;;19.31;58.28
11648;BME280;5880;52.342;9.662;2022-10-24T04:49:42;100058.81;;;19.30;58.27
11648;BME280;5880;52.342;9.662;2022-10-24T04:52:09;100066.31;;;19.30;58.45
11648;BME280;5880;52.342;9.662;2022-10-24T04:54:34;100064.63;;;19.29;58.28
11648;BME280;5880;52.342;9.662;2022-10-24T04:57:00;100063.53;;;19.30;58.37
11648;BME280;5880;52.342;9.662;2022-10-24T04:59:26;100058.28;;;19.28;58.36
11648;BME280;5880;52.342;9.662;2022-10-24T05:01:52;100068.56;;;19.28;58.34
11648;BME280;5880;52.342;9.662;2022-10-24T05:04:19;100076.03;;;19.27;58.71
11648;BME280;5880;52.342;9.662;2022-10-24T05:06:45;100063.91;;;19.23;58.64
11648;BME280;5880;52.342;9.662;2022-10-24T05:09:12;100071.31;;;19.28;58.30
11648;BME280;5880;52.342;9.662;2022-10-24T05:11:38;100070.50;;;19.27;58.67
11648;BME280;5880;52.342;9.662;2022-10-24T05:14:04;100060.25;;;19.28;58.68
11648;BME280;5880;52.342;9.662;2022-10-24T05:16:29;100074.63;;;19.30;58.61
11648;BME280;5880;52.342;9.662;2022-10-24T05:18:55;100056.84;;;19.31;58.36
11648;BME280;5880;52.342;9.662;2022-10-24T05:21:21;100056.03;;;19.30;58.42
11648;BME280;5880;52.342;9.662;2022-10-24T05:23:46;100052.13;;;19.31;58.54
11648;BME280;5880;52.342;9.662;2022-10-24T05:26:12;100049.34;;;19.31;58.46
11648;BME280;5880;52.342;9.662;2022-10-24T05:28:38;100047.94;;;19.34;58.29
11648;BME280;5880;52.342;9.662;2022-10-24T05:31:04;100045.19;;;19.34;58.39
11648;BME280;5880;52.342;9.662;2022-10-24T05:33:29;100047.72;;;19.30;58.46
11648;BME280;5880;52.342;9.662;2022-10-24T05:35:55;100045.19;;;19.34;58.52
11648;BME280;5880;52.342;9.662;2022-10-24T05:38:21;100053.97;;;19.36;58.52
11648;BME280;5880;52.342;9.662;2022-10-24T05:40:47;100050.41;;;19.35;58.53
11648;BME280;5880;52.342;9.662;2022-10-24T05:43:14;100047.34;;;19.37;58.35
11648;BME280;5880;52.342;9.662;2022-10-24T05:45:41;100052.06;;;19.36;58.34
11648;BME280;5880;52.342;9.662;2022-10-24T05:48:07;100052.53;;;19.38;58.62
11648;BME280;5880;52.342;9.662;2022-10-24T05:50:33;100045.09;;;19.39;58.47
11648;BME280;5880;52.342;9.662;2022-10-24T05:53:00;100052.78;;;19.42;58.66
11648;BME280;5880;52.342;9.662;2022-10-24T05:55:26;100046.41;;;19.42;58.31
11648;BME280;5880;52.342;9.662;2022-10-24T05:57:51;100053.28;;;19.44;58.32
11648;BME280;5880;52.342;9.662;2022-10-24T06:00:17;100053.28;;;19.44;58.58
11648;BME280;5880;52.342;9.662;2022-10-24T06:02:44;100054.94;;;19.45;58.31
11648;BME280;5880;52.342;9.662;2022-10-24T06:05:11;100057.41;;;19.47;58.31
11648;BME280;5880;52.342;9.662;2022-10-24T06:07:37;100059.03;;;19.48;58.50
11648;BME280;5880;52.342;9.662;2022-10-24T06:10:05;100054.34;;;19.48;58.52
11648;BME280;5880;52.342;9.662;2022-10-24T06:12:31;100054.34;;;19.48;58.33
11648;BME280;5880;52.342;9.662;2022-10-24T06:14:58;100055.97;;;19.49;58.48
11648;BME280;5880;52.342;9.662;2022-10-24T06:17:25;100046.53;;;19.50;58.49
11648;BME280;5880;52.342;9.662;2022-10-24T06:19:51;100048.16;;;19.51;58.36
11648;BME280;5880;52.342;9.662;2022-10-24T06:22:17;100048.16;;;19.51;58.47
11648;BME280;5880;52.342;9.662;2022-10-24T06:24:43;100062.84;;;19.52;58.73
11648;BME280;5880;52.342;9.662;2022-10-24T06:27:09;100048.78;;;19.48;58.78
11648;BME280;5880;52.342;9.662;2022-10-24T06:29:35;100052.56;;;19.52;58.66
11648;BME280;5880;52.342;9.662;2022-10-24T06:32:01;100047.56;;;19.54;58.95
11648;BME280;5880;52.342;9.662;2022-10-24T06:34:27;100043.34;;;19.57;58.75
11648;BME280;5880;52.342;9.662;2022-10-24T06:36:53;100050.53;;;19.58;59.15
11648;BME280;5880;52.342;9.662;2022-10-24T06:39:19;100051.88;;;19.60;59.12
11648;BME280;5880;52.342;9.662;2022-10-24T06:41:45;100056.28;;;19.61;58.95
11648;BME280;5880;52.342;9.662;2022-10-24T06:44:10;100065.44;;;19.62;59.01
11648;BME280;5880;52.342;9.662;2022-10-24T06:46:37;100072.31;;;19.65;59.02
11648;BME280;5880;52.342;9.662;2022-10-24T06:49:02;100076.44;;;19.67;58.95
11648;BME280;5880;52.342;9.662;2022-10-24T06:51:28;100071.69;;;19.68;59.15
11648;BME280;5880;52.342;9.662;2022-10-24T06:53:54;100071.44;;;19.69;58.83
11648;BME280;5880;52.342;9.662;2022-10-24T06:56:20;100079.94;;;19.73;58.95
11648;BME280;5880;52.342;9.662;2022-10-24T06:58:45;100081.59;;;19.74;58.81
11648;BME280;5880;52.342;9.662;2022-10-24T07:01:15;100084.56;;;19.77;58.74
11648;BME280;5880;52.342;9.662;2022-10-24T07:03:42;100093.19;;;19.76;58.69
11648;BME280;5880;52.342;9.662;2022-10-24T07:06:17;100094.22;;;19.80;58.83
11648;BME280;5880;52.342;9.662;2022-10-24T07:08:44;100087.84;;;19.79;58.84
11648;BME280;5880;52.342;9.662;2022-10-24T07:11:10;100088.38;;;19.81;59.00
11648;BME280;5880;52.342;9.662;2022-10-24T07:13:36;100089.72;;;19.84;58.99
11648;BME280;5880;52.342;9.662;2022-10-24T07:16:01;100085.50;;;19.87;59.00
11648;BME280;5880;52.342;9.662;2022-10-24T07:18:27;100089.31;;;19.91;58.97
11648;BME280;5880;52.342;9.662;2022-10-24T07:20:53;100081.28;;;19.89;58.82
11648;BME280;5880;52.342;9.662;2022-10-24T07:23:18;100100.28;;;19.96;58.99
11648;BME280;5880;52.342;9.662;2022-10-24T07:25:44;100111.59;;;19.99;58.72
11648;BME280;5880;52.342;9.662;2022-10-24T07:28:10;100102.66;;;20.02;59.08
11648;BME280;5880;52.342;9.662;2022-10-24T07:30:38;100102.84;;;20.06;58.78
11648;BME280;5880;52.342;9.662;2022-10-24T07:33:04;100112.72;;;20.12;58.72
11648;BME280;5880;52.342;9.662;2022-10-24T07:35:30;100101.00;;;20.15;59.11
11648;BME280;5880;52.342;9.662;2022-10-24T07:37:56;100105.94;;;20.18;58.95
11648;BME280;5880;52.342;9.662;2022-10-24T07:40:22;100107.81;;;20.23;58.75
11648;BME280;5880;52.342;9.662;2022-10-24T07:42:48;100110.75;;;20.27;58.87
11648;BME280;5880;52.342;9.662;2022-10-24T07:45:13;100116.53;;;20.30;58.60
11648;BME280;5880;52.342;9.662;2022-10-24T07:47:39;100112.81;;;20.35;58.53
11648;BME280;5880;52.342;9.662;2022-10-24T07:50:06;100113.63;;;20.35;58.60
11648;BME280;5880;52.342;9.662;2022-10-24T07:52:32;100118.78;;;20.42;58.56
11648;BME280;5880;52.342;9.662;2022-10-24T07:54:58;100107.34;;;20.43;58.60
11648;BME280;5880;52.342;9.662;2022-10-24T07:57:23;100104.47;;;20.49;58.83
11648;BME280;5880;52.342;9.662;2022-10-24T07:59:50;100105.47;;;20.53;58.70
11648;BME280;5880;52.342;9.662;2022-10-24T08:02:16;100104.28;;;20.59;58.77
11648;BME280;5880;52.342;9.662;2022-10-24T08:04:42;100098.59;;;20.64;58.81
11648;BME280;5880;52.342;9.662;2022-10-24T08:07:09;100100.13;;;20.70;58.66
11648;BME280;5880;52.342;9.662;2022-10-24T08:09:47;100110.81;;;20.77;58.30
11648;BME280;5880;52.342;9.662;2022-10-24T08:12:13;100110.69;;;20.82;58.34
11648;BME280;5880;52.342;9.662;2022-10-24T08:14:40;100097.19;;;20.89;58.40
11648;BME280;5880;52.342;9.662;2022-10-24T08:17:06;100107.03;;;20.95;58.31
11648;BME280;5880;52.342;9.662;2022-10-24T08:19:33;100099.41;;;21.01;58.20
11648;BME280;5880;52.342;9.662;2022-10-24T08:22:00;100094.25;;;21.08;58.01
11648;BME280;5880;52.342;9.662;2022-10-24T08:24:26;100092.66;;;21.16;58.25
11648;BME280;5880;52.342;9.662;2022-10-24T08:26:52;100097.25;;;21.20;58.07
11648;BME280;5880;52.342;9.662;2022-10-24T08:29:20;100094.84;;;21.27;57.98
11648;BME280;5880;52.342;9.662;2022-10-24T08:31:54;100098.34;;;21.33;57.60
11648;BME280;5880;52.342;9.662;2022-10-24T08:36:48;100081.53;;;21.38;57.71
11648;BME280;5880;52.342;9.662;2022-10-24T08:39:15;100090.44;;;21.49;57.67
11648;BME280;5880;52.342;9.662;2022-10-24T08:42:03;100088.34;;;21.55;57.39
11648;BME280;5880;52.342;9.662;2022-10-24T08:44:42;100090.19;;;21.59;57.62
11648;BME280;5880;52.342;9.662;2022-10-24T08:47:41;100092.31;;;21.62;57.36
11648;BME280;5880;52.342;9.662;2022-10-24T08:50:29;100082.19;;;21.66;57.18
11648;BME280;5880;52.342;9.662;2022-10-24T08:53:05;100097.94;;;21.71;57.16
11648;BME280;5880;52.342;9.662;2022-10-24T08:55:50;100098.59;;;21.77;57.05
11648;BME280;5880;52.342;9.662;2022-10-24T08:58:25;100092.06;;;21.81;56.88
11648;BME280;5880;52.342;9.662;2022-10-24T09:00:56;100100.59;;;21.85;56.73
11648;BME280;5880;52.342;9.662;2022-10-24T09:03:50;100089.66;;;21.88;56.62
11648;BME280;5880;52.342;9.662;2022-10-24T09:06:25;100094.09;;;21.89;56.54
11648;BME280;5880;52.342;9.662;2022-10-24T09:09:08;100092.63;;;21.92;56.33
11648;BME280;5880;52.342;9.662;2022-10-24T09:11:59;100093.94;;;21.95;56.34
11648;BME280;5880;52.342;9.662;2022-10-24T09:14:32;100091.66;;;21.97;56.41
11648;BME280;5880;52.342;9.662;2022-10-24T09:17:18;100096.25;;;22.01;56.22
11648;BME280;5880;52.342;9.662;2022-10-24T09:19:55;100093.63;;;22.05;56.06
11648;BME280;5880;52.342;9.662;2022-10-24T09:22:24;100095.44;;;22.09;56.16
11648;BME280;5880;52.342;9.662;2022-10-24T09:25:00;100081.72;;;22.13;55.84
11648;BME280;5880;52.342;9.662;2022-10-24T09:27:33;100094.25;;;22.24;55.87
11648;BME280;5880;52.342;9.662;2022-10-24T09:30:00;100104.56;;;22.32;55.79
11648;BME280;5880;52.342;9.662;2022-10-24T09:32:32;100103.59;;;22.46;55.97
11648;BME280;5880;52.342;9.662;2022-10-24T09:35:04;100109.53;;;22.62;55.86
11648;BME280;5880;52.342;9.662;2022-10-24T09:37:43;100112.97;;;22.85;55.93
11648;BME280;5880;52.342;9.662;2022-10-24T09:40:22;100112.03;;;23.07;55.45
11648;BME280;5880;52.342;9.662;2022-10-24T09:46:07;100113.44;;;23.56;54.85
11648;BME280;5880;52.342;9.662;2022-10-24T09:48:47;100110.25;;;23.84;54.63
11648;BME280;5880;52.342;9.662;2022-10-24T09:51:32;100124.91;;;24.11;53.64
11648;BME280;5880;52.342;9.662;2022-10-24T09:56:46;100108.25;;;24.23;52.47
11648;BME280;5880;52.342;9.662;2022-10-24T10:01:43;100117.06;;;24.04;52.47
11648;BME280;5880;52.342;9.662;2022-10-24T10:04:18;100124.66;;;23.95;52.90
11648;BME280;5880;52.342;9.662;2022-10-24T10:06:49;100126.50;;;23.82;52.90
11648;BME280;5880;52.342;9.662;2022-10-24T10:09:25;100120.13;;;23.73;52.97
11648;BME280;5880;52.342;9.662;2022-10-24T10:11:57;100119.31;;;23.64;52.89
11648;BME280;5880;52.342;9.662;2022-10-24T10:14:27;100121.47;;;23.58;52.83
11648;BME280;5880;52.342;9.662;2022-10-24T10:17:04;100131.34;;;23.55;52.87
11648;BME280;5880;52.342;9.662;2022-10-24T10:19:35;100123.47;;;23.49;53.02
11648;BME280;5880;52.342;9.662;2022-10-24T10:22:24;100134.75;;;23.52;53.18
11648;BME280;5880;52.342;9.662;2022-10-24T10:24:51;100128.19;;;23.48;53.43
11648;BME280;5880;52.342;9.662;2022-10-24T10:27:39;100134.13;;;23.55;53.44
11648;BME280;5880;52.342;9.662;2022-10-24T10:33:19;100118.38;;;23.51;53.03
11648;BME280;5880;52.342;9.662;2022-10-24T10:38:50;100135.75;;;23.48;52.52
11648;BME280;5880;52.342;9.662;2022-10-24T10:47:44;100132.81;;;23.44;52.75
11648;BME280;5880;52.342;9.662;2022-10-24T10:50:37;100136.44;;;23.45;52.45
11648;BME280;5880;52.342;9.662;2022-10-24T10:53:29;100144.28;;;23.43;52.49
11648;BME280;5880;52.342;9.662;2022-10-24T10:56:19;100138.56;;;23.39;52.32
11648;BME280;5880;52.342;9.662;2022-10-24T10:59:21;100138.72;;;23.34;52.29
11648;BME280;5880;52.342;9.662;2022-10-24T11:02:34;100147.63;;;23.27;52.11
11648;BME280;5880;52.342;9.662;2022-10-24T11:08:36;100153.19;;;23.18;52.27
11648;BME280;5880;52.342;9.662;2022-10-24T11:11:12;100154.81;;;23.20;52.02
11648;BME280;5880;52.342;9.662;2022-10-24T11:13:48;100156.78;;;23.19;51.32
11648;BME280;5880;52.342;9.662;2022-10-24T11:16:27;100154.31;;;23.17;51.16
11648;BME280;5880;52.342;9.662;2022-10-24T11:19:00;100156.28;;;23.17;50.93
11648;BME280;5880;52.342;9.662;2022-10-24T11:21:31;100154.66;;;23.16;50.60
11648;BME280;5880;52.342;9.662;2022-10-24T11:24:24;100163.97;;;23.20;51.15
11648;BME280;5880;52.342;9.662;2022-10-24T11:27:07;100150.53;;;23.22;50.99
11648;BME280;5880;52.342;9.662;2022-10-24T11:29:59;100160.88;;;23.22;50.94
11648;BME280;5880;52.342;9.662;2022-10-24T11:32:43;100155.31;;;23.22;50.56
11648;BME280;5880;52.342;9.662;2022-10-24T11:35:27;100153.31;;;23.22;50.36
11648;BME280;5880;52.342;9.662;2022-10-24T11:38:02;100158.91;;;23.22;50.25
11648;BME280;5880;52.342;9.662;2022-10-24T11:40:34;100157.59;;;23.20;50.26
11648;BME280;5880;52.342;9.662;2022-10-24T11:43:18;100157.59;;;23.20;50.08
11648;BME280;5880;52.342;9.662;2022-10-24T11:46:03;100167.94;;;23.19;49.90
11648;BME280;5880;52.342;9.662;2022-10-24T11:48:42;100155.63;;;23.20;49.92
11648;BME280;5880;52.342;9.662;2022-10-24T11:51:23;100163.97;;;23.20;50.03
11648;BME280;5880;52.342;9.662;2022-10-24T11:59:11;100167.75;;;23.15;49.54
11648;BME280;5880;52.342;9.662;2022-10-24T12:01:49;100163.19;;;23.11;49.19
11648;BME280;5880;52.342;9.662;2022-10-24T12:05:02;100161.84;;;23.08;49.44
11648;BME280;5880;52.342;9.662;2022-10-24T12:14:44;100171.38;;;22.99;49.63
11648;BME280;5880;52.342;9.662;2022-10-24T12:20:14;100167.59;;;22.94;49.58
11648;BME280;5880;52.342;9.662;2022-10-24T12:22:43;100175.16;;;23.03;49.85
11648;BME280;5880;52.342;9.662;2022-10-24T12:25:35;100170.88;;;23.14;49.89
11648;BME280;5880;52.342;9.662;2022-10-24T12:28:05;100179.25;;;23.23;49.97
11648;BME280;5880;52.342;9.662;2022-10-24T12:30:34;100169.25;;;23.30;49.48
11648;BME280;5880;52.342;9.662;2022-10-24T12:33:26;100175.97;;;23.38;49.79
11648;BME280;5880;52.342;9.662;2022-10-24T12:35:53;100175.97;;;23.38;49.55
11648;BME280;5880;52.342;9.662;2022-10-24T12:47:42;100189.91;;;23.55;49.13
11648;BME280;5880;52.342;9.662;2022-10-24T12:52:59;100197.59;;;23.50;48.38
11648;BME280;5880;52.342;9.662;2022-10-24T12:58:03;100199.72;;;23.53;48.44
11648;BME280;5880;52.342;9.662;2022-10-24T13:00:30;100200.69;;;23.57;48.43
11648;BME280;5880;52.342;9.662;2022-10-24T13:03:22;100205.63;;;23.60;48.45
11648;BME280;5880;52.342;9.662;2022-10-24T13:09:07;100201.03;;;23.64;48.62
11648;BME280;5880;52.342;9.662;2022-10-24T13:18:34;100211.69;;;23.62;48.50
11648;BME280;5880;52.342;9.662;2022-10-24T13:21:27;100202.00;;;23.59;48.54
11648;BME280;5880;52.342;9.662;2022-10-24T13:26:45;100212.03;;;23.60;47.74
11648;BME280;5880;52.342;9.662;2022-10-24T13:43:13;100218.13;;;23.28;47.81
11648;BME280;5880;52.342;9.662;2022-10-24T13:45:54;100212.72;;;23.23;47.80
11648;BME280;5880;52.342;9.662;2022-10-24T13:48:33;100209.75;;;23.19;47.79
11648;BME280;5880;52.342;9.662;2022-10-24T13:51:20;100210.91;;;23.18;47.62
11648;BME280;5880;52.342;9.662;2022-10-24T13:54:00;100212.34;;;23.15;47.72
11648;BME280;5880;52.342;9.662;2022-10-24T13:56:30;100203.34;;;23.10;47.79
11648;BME280;5880;52.342;9.662;2022-10-24T13:59:00;100211.69;;;23.10;47.93
11648;BME280;5880;52.342;9.662;2022-10-24T14:01:28;100205.63;;;23.08;47.76
11648;BME280;5880;52.342;9.662;2022-10-24T14:03:57;100206.31;;;23.13;47.81
11648;BME280;5880;52.342;9.662;2022-10-24T14:06:29;100202.84;;;23.16;47.97
11648;BME280;5880;52.342;9.662;2022-10-24T14:09:03;100207.78;;;23.20;47.87
11648;BME280;5880;52.342;9.662;2022-10-24T14:11:38;100202.38;;;23.23;47.82
11648;BME280;5880;52.342;9.662;2022-10-24T14:14:22;100211.22;;;23.25;47.70
11648;BME280;5880;52.342;9.662;2022-10-24T14:17:16;100195.63;;;23.24;47.58
11648;BME280;5880;52.342;9.662;2022-10-24T14:19:57;100188.09;;;23.25;47.65
11648;BME280;5880;52.342;9.662;2022-10-24T14:22:37;100184.34;;;23.21;47.42
11648;BME280;5880;52.342;9.662;2022-10-24T14:25:21;100184.66;;;23.19;47.39
11648;BME280;5880;52.342;9.662;2022-10-24T14:27:47;100191.72;;;23.16;47.35
11648;BME280;5880;52.342;9.662;2022-10-24T14:30:25;100195.97;;;23.14;47.10
11648;BME280;5880;52.342;9.662;2022-10-24T14:33:24;100198.94;;;23.09;47.24
11648;BME280;5880;52.342;9.662;2022-10-24T14:35:51;100196.28;;;23.04;47.05
11648;BME280;5880;52.342;9.662;2022-10-24T14:38:19;100200.03;;;22.99;46.99
11648;BME280;5880;52.342;9.662;2022-10-24T14:40:46;100207.91;;;22.97;46.98
11648;BME280;5880;52.342;9.662;2022-10-24T14:43:28;100205.75;;;22.94;46.80
11648;BME280;5880;52.342;9.662;2022-10-24T14:46:22;100205.59;;;22.90;47.02
11648;BME280;5880;52.342;9.662;2022-10-24T14:48:49;100207.69;;;22.85;46.93
11648;BME280;5880;52.342;9.662;2022-10-24T14:51:32;100208.84;;;22.84;46.89
11648;BME280;5880;52.342;9.662;2022-10-24T14:54:03;100200.00;;;22.82;46.86
11648;BME280;5880;52.342;9.662;2022-10-24T14:56:35;100211.63;;;22.84;46.87
11648;BME280;5880;52.342;9.662;2022-10-24T14:59:27;100208.34;;;22.82;47.05
11648;BME280;5880;52.342;9.662;2022-10-24T15:04:39;100198.69;;;22.79;46.86
11648;BME280;5880;52.342;9.662;2022-10-24T15:10:17;100209.97;;;22.74;47.14
11648;BME280;5880;52.342;9.662;2022-10-24T15:18:35;100203.59;;;22.73;46.98